createdAt,value
2023-03-30T00:01:22.676Z,6.60
2023-03-30T00:03:51.386Z,5.37
2023-03-30T00:06:23.118Z,5.67
2023-03-30T00:08:57.417Z,6.23
2023-03-30T00:11:27.017Z,7.43
2023-03-30T00:13:56.042Z,5.47
2023-03-30T00:16:24.612Z,6.10
2023-03-30T00:18:53.235Z,7.53
2023-03-30T00:21:23.106Z,7.97
2023-03-30T00:23:52.504Z,7.97
2023-03-30T00:26:21.321Z,7.50
2023-03-30T00:28:49.808Z,6.27
2023-03-30T00:31:18.235Z,6.53
2023-03-30T00:33:47.686Z,5.80
2023-03-30T00:36:17.572Z,3.90
2023-03-30T00:38:48.371Z,5.20
2023-03-30T00:41:17.854Z,7.10
2023-03-30T00:44:01.228Z,6.60
2023-03-30T00:46:31.166Z,7.13
2023-03-30T00:49:05.279Z,5.03
2023-03-30T00:51:36.656Z,5.30
2023-03-30T00:54:12.374Z,6.70
2023-03-30T00:56:41.267Z,5.50
2023-03-30T00:59:10.527Z,7.17
2023-03-30T01:01:40.543Z,4.93
2023-03-30T01:04:11.081Z,5.63
2023-03-30T01:06:43.636Z,5.17
2023-03-30T01:09:15.495Z,6.30
2023-03-30T01:11:44.289Z,4.47
2023-03-30T01:14:15.630Z,5.73
2023-03-30T01:16:51.414Z,4.90
2023-03-30T01:19:43.832Z,6.73
2023-03-30T01:22:54.962Z,6.03
2023-03-30T01:26:02.903Z,5.97
2023-03-30T01:28:42.984Z,8.97
2023-03-30T01:32:05.154Z,7.33
2023-03-30T01:34:52.834Z,7.47
2023-03-30T01:37:58.868Z,4.80
2023-03-30T01:40:33.417Z,5.73
2023-03-30T01:43:11.556Z,5.23
2023-03-30T01:45:46.581Z,7.37
2023-03-30T01:48:21.098Z,8.63
2023-03-30T01:50:54.773Z,5.63
2023-03-30T01:53:34.372Z,5.57
2023-03-30T01:56:12.080Z,4.13
2023-03-30T01:58:45.956Z,6.37
2023-03-30T02:01:17.548Z,6.20
2023-03-30T02:03:52.477Z,4.67
2023-03-30T02:06:29.468Z,7.60
2023-03-30T02:09:07.634Z,4.10
2023-03-30T02:11:43.888Z,6.13
2023-03-30T02:14:13.969Z,6.33
2023-03-30T02:16:47.439Z,4.73
2023-03-30T02:19:17.110Z,5.23
2023-03-30T02:21:45.822Z,4.90
2023-03-30T02:24:19.388Z,8.47
2023-03-30T02:26:54.495Z,4.37
2023-03-30T02:29:24.043Z,5.17
2023-03-30T02:31:57.187Z,8.87
2023-03-30T02:34:47.577Z,4.07
2023-03-30T02:37:45.005Z,6.57
2023-03-30T02:40:33.484Z,8.82
2023-03-30T02:43:24.657Z,7.97
2023-03-30T02:46:03.469Z,5.97
2023-03-30T02:48:41.609Z,6.40
2023-03-30T02:51:32.022Z,6.77
2023-03-30T02:54:35.822Z,4.87
2023-03-30T02:57:37.322Z,7.67
2023-03-30T03:00:33.545Z,7.10
2023-03-30T03:03:12.248Z,7.30
2023-03-30T03:05:42.967Z,7.57
2023-03-30T03:08:16.601Z,4.80
2023-03-30T03:10:47.152Z,7.40
2023-03-30T03:13:16.870Z,6.33
2023-03-30T03:15:49.622Z,7.30
2023-03-30T03:18:18.664Z,10.20
2023-03-30T03:20:47.650Z,9.17
2023-03-30T03:23:16.102Z,6.93
2023-03-30T03:25:49.482Z,8.10
2023-03-30T03:28:20.534Z,5.90
2023-03-30T03:30:54.306Z,6.83
2023-03-30T03:33:25.878Z,6.87
2023-03-30T03:36:04.345Z,5.80
2023-03-30T03:38:34.683Z,4.37
2023-03-30T03:41:03.443Z,8.37
2023-03-30T03:43:32.721Z,6.07
2023-03-30T03:46:02.506Z,9.47
2023-03-30T03:48:30.918Z,7.40
2023-03-30T03:51:00.765Z,7.50
2023-03-30T03:53:33.591Z,9.43
2023-03-30T03:56:06.573Z,12.13
2023-03-30T03:58:36.232Z,8.90
2023-03-30T04:01:06.280Z,9.37
2023-03-30T04:03:34.793Z,6.60
2023-03-30T04:06:03.555Z,6.47
2023-03-30T04:08:33.310Z,6.67
2023-03-30T04:11:12.134Z,7.70
2023-03-30T04:14:07.371Z,6.80
2023-03-30T04:16:45.627Z,5.57
2023-03-30T04:19:36.079Z,7.13
2023-03-30T04:22:33.583Z,5.87
2023-03-30T04:25:29.265Z,7.07
2023-03-30T04:28:16.224Z,6.80
2023-03-30T04:31:10.720Z,6.07
2023-03-30T04:33:51.913Z,9.83
2023-03-30T04:36:59.158Z,8.20
2023-03-30T04:39:54.017Z,8.03
2023-03-30T04:42:41.066Z,8.10
2023-03-30T04:45:28.171Z,6.17
2023-03-30T04:47:56.607Z,7.13
2023-03-30T04:50:46.476Z,6.80
2023-03-30T04:53:33.136Z,7.10
2023-03-30T04:56:27.915Z,10.90
2023-03-30T04:59:14.711Z,8.90
2023-03-30T05:02:04.019Z,10.30
2023-03-30T05:04:32.395Z,9.30
2023-03-30T05:07:34.393Z,10.93
2023-03-30T05:10:29.419Z,7.43
2023-03-30T05:13:24.135Z,8.03
2023-03-30T05:15:55.637Z,10.50
2023-03-30T05:18:53.482Z,6.80
2023-03-30T05:21:39.879Z,7.03
2023-03-30T05:24:35.106Z,7.57
2023-03-30T05:27:25.038Z,6.07
2023-03-30T05:30:19.519Z,7.57
2023-03-30T05:33:09.970Z,6.27
2023-03-30T05:36:01.560Z,9.70
2023-03-30T05:38:48.309Z,10.87
2023-03-30T05:41:56.310Z,9.37
2023-03-30T05:44:39.850Z,8.47
2023-03-30T05:47:28.884Z,7.83
2023-03-30T05:50:13.047Z,10.00
2023-03-30T05:53:01.923Z,7.80
2023-03-30T05:55:58.443Z,10.50
2023-03-30T05:58:57.477Z,8.63
2023-03-30T06:01:46.856Z,14.27
2023-03-30T06:04:16.534Z,11.23
2023-03-30T06:06:45.266Z,11.93
2023-03-30T06:09:14.021Z,9.67
2023-03-30T06:11:43.355Z,6.93
2023-03-30T06:14:22.796Z,11.73
2023-03-30T06:17:12.172Z,11.43
2023-03-30T06:19:41.303Z,8.40
2023-03-30T06:22:10.400Z,7.73
2023-03-30T06:24:49.160Z,7.40
2023-03-30T06:27:17.802Z,5.93
2023-03-30T06:29:47.625Z,9.50
2023-03-30T06:32:16.054Z,7.03
2023-03-30T06:34:50.443Z,6.63
2023-03-30T06:37:24.123Z,7.97
2023-03-30T06:39:52.796Z,5.27
2023-03-30T06:42:21.308Z,8.43
2023-03-30T06:45:19.796Z,6.83
2023-03-30T06:47:49.047Z,8.67
2023-03-30T06:50:18.173Z,6.63
2023-03-30T06:53:16.183Z,6.73
2023-03-30T06:55:53.186Z,7.23
2023-03-30T06:58:23.677Z,7.73
2023-03-30T07:00:53.996Z,8.23
2023-03-30T07:03:45.466Z,6.33
2023-03-30T07:06:25.766Z,7.43
2023-03-30T07:08:54.139Z,8.37
2023-03-30T07:11:26.551Z,8.33
2023-03-30T07:13:56.350Z,4.70
2023-03-30T07:16:26.726Z,9.63
2023-03-30T07:18:55.248Z,4.80
2023-03-30T07:21:24.074Z,8.67
2023-03-30T07:23:52.589Z,9.27
2023-03-30T07:26:32.836Z,5.33
2023-03-30T07:29:07.496Z,5.80
2023-03-30T07:31:39.020Z,9.47
2023-03-30T07:34:10.208Z,6.20
2023-03-30T07:36:43.217Z,8.33
2023-03-30T07:39:11.713Z,5.43
2023-03-30T07:41:42.390Z,8.33
2023-03-30T07:44:11.039Z,3.53
2023-03-30T07:46:41.204Z,3.33
2023-03-30T07:49:15.116Z,2.90
2023-03-30T07:51:43.477Z,4.43
2023-03-30T07:54:21.716Z,5.50
2023-03-30T07:57:10.555Z,3.57
2023-03-30T07:59:39.589Z,5.97
2023-03-30T08:02:28.266Z,4.20
2023-03-30T08:04:58.193Z,6.57
2023-03-30T08:07:34.333Z,5.67
2023-03-30T08:10:12.156Z,4.10
2023-03-30T08:12:41.118Z,4.77
2023-03-30T08:15:11.300Z,4.53
2023-03-30T08:17:41.335Z,3.93
2023-03-30T08:20:11.679Z,6.40
2023-03-30T08:22:40.418Z,5.50
2023-03-30T08:25:09.973Z,5.90
2023-03-30T08:27:38.396Z,3.97
2023-03-30T08:30:08.532Z,3.33
2023-03-30T08:32:36.856Z,3.37
2023-03-30T08:35:08.342Z,2.50
2023-03-30T08:37:36.672Z,4.10
2023-03-30T08:40:08.418Z,3.87
2023-03-30T08:42:59.936Z,4.57
2023-03-30T08:45:37.425Z,3.13
2023-03-30T08:48:16.231Z,3.87
2023-03-30T08:50:55.172Z,2.43
2023-03-30T08:53:23.723Z,3.50
2023-03-30T08:55:55.103Z,3.57
2023-03-30T08:58:36.059Z,4.87
2023-03-30T09:01:18.018Z,6.10
2023-03-30T09:04:01.462Z,5.03
2023-03-30T09:06:46.785Z,4.87
2023-03-30T09:09:18.861Z,3.10
2023-03-30T09:11:53.689Z,4.87
2023-03-30T09:14:32.673Z,5.50
2023-03-30T09:17:10.084Z,6.90
2023-03-30T09:19:50.055Z,3.37
2023-03-30T09:22:21.099Z,5.20
2023-03-30T09:24:51.589Z,4.10
2023-03-30T09:27:30.342Z,7.43
2023-03-30T09:30:07.881Z,3.00
2023-03-30T09:32:46.251Z,4.80
2023-03-30T09:35:21.648Z,7.60
2023-03-30T09:37:51.590Z,4.97
2023-03-30T09:40:35.737Z,6.43
2023-03-30T09:43:16.426Z,5.90
2023-03-30T09:45:46.889Z,7.20
2023-03-30T09:48:17.218Z,3.50
2023-03-30T09:50:47.764Z,7.53
2023-03-30T09:53:26.068Z,3.47
2023-03-30T09:56:02.251Z,6.93
2023-03-30T09:58:33.481Z,5.33
2023-03-30T10:01:12.531Z,5.80
2023-03-30T10:03:43.519Z,3.90
2023-03-30T10:06:15.957Z,4.47
2023-03-30T10:08:51.985Z,5.73
2023-03-30T10:11:23.259Z,4.00
2023-03-30T10:13:52.200Z,4.13
2023-03-30T10:16:27.522Z,3.17
2023-03-30T10:19:01.347Z,5.43
2023-03-30T10:21:33.301Z,3.47
2023-03-30T10:24:08.183Z,5.00
2023-03-30T10:26:39.320Z,3.00
2023-03-30T10:29:11.547Z,4.87
2023-03-30T10:31:44.863Z,3.63
2023-03-30T10:34:19.640Z,5.13
2023-03-30T10:36:51.887Z,4.07
2023-03-30T10:39:29.439Z,4.27
2023-03-30T10:42:01.268Z,5.30
2023-03-30T10:44:33.979Z,6.67
2023-03-30T10:47:22.243Z,4.93
2023-03-30T10:50:03.419Z,3.20
2023-03-30T10:52:48.806Z,4.40
2023-03-30T10:55:37.845Z,6.30
2023-03-30T10:58:21.600Z,7.13
2023-03-30T11:01:04.810Z,3.93
2023-03-30T11:03:35.471Z,6.67
2023-03-30T11:06:10.706Z,3.63
2023-03-30T11:08:42.804Z,8.90
2023-03-30T11:11:20.947Z,6.20
2023-03-30T11:13:53.508Z,3.17
2023-03-30T11:16:28.001Z,4.80
2023-03-30T11:19:02.612Z,4.37
2023-03-30T11:21:38.502Z,6.43
2023-03-30T11:24:15.032Z,4.53
2023-03-30T11:26:52.470Z,8.17
2023-03-30T11:29:33.945Z,5.47
2023-03-30T11:32:22.065Z,3.43
2023-03-30T11:35:02.591Z,2.77
2023-03-30T11:37:36.010Z,7.13
2023-03-30T11:40:16.528Z,4.17
2023-03-30T11:42:48.431Z,4.13
2023-03-30T11:45:41.861Z,4.03
2023-03-30T11:48:38.377Z,4.53
2023-03-30T11:51:23.376Z,3.40
2023-03-30T11:53:59.819Z,5.27
2023-03-30T11:56:37.650Z,4.50
2023-03-30T11:59:17.388Z,2.37
2023-03-30T12:02:08.367Z,3.43
2023-03-30T12:04:44.095Z,4.13
2023-03-30T12:07:31.424Z,5.90
2023-03-30T12:10:06.743Z,4.53
2023-03-30T12:12:39.279Z,3.63
2023-03-30T12:15:38.123Z,3.45
2023-03-30T12:18:20.211Z,3.73
2023-03-30T12:20:55.237Z,3.70
2023-03-30T12:23:35.651Z,3.33
2023-03-30T12:26:13.517Z,3.50
2023-03-30T12:29:03.328Z,2.63
2023-03-30T12:32:20.934Z,4.37
2023-03-30T12:34:49.385Z,4.10
2023-03-30T12:37:21.260Z,3.20
2023-03-30T12:39:56.135Z,5.28
2023-03-30T12:42:27.466Z,4.20
2023-03-30T12:45:21.174Z,3.10
2023-03-30T12:48:15.119Z,5.50
2023-03-30T12:50:54.566Z,3.50
2023-03-30T12:54:01.395Z,2.93
2023-03-30T12:56:38.605Z,6.53
2023-03-30T12:59:31.194Z,5.53
2023-03-30T13:02:30.062Z,5.10
2023-03-30T13:04:59.917Z,4.73
2023-03-30T13:07:36.335Z,4.57
2023-03-30T13:10:42.605Z,5.43
2023-03-30T13:13:25.056Z,5.87
2023-03-30T13:15:57.654Z,4.17
2023-03-30T13:18:42.536Z,5.07
2023-03-30T13:21:25.500Z,2.03
2023-03-30T13:24:23.730Z,2.83
2023-03-30T13:26:54.102Z,4.40
2023-03-30T13:29:31.103Z,2.57
2023-03-30T13:32:16.869Z,2.90
2023-03-30T13:35:23.001Z,2.60
2023-03-30T13:38:25.833Z,1.93
2023-03-30T13:41:06.349Z,2.27
2023-03-30T13:43:50.657Z,2.63
2023-03-30T13:46:29.532Z,1.40
2023-03-30T13:49:14.598Z,1.63
2023-03-30T13:51:43.421Z,2.37
2023-03-30T13:54:19.502Z,2.38
2023-03-30T13:56:56.008Z,2.83
2023-03-30T13:59:31.091Z,2.10
2023-03-30T14:02:02.730Z,2.63
2023-03-30T14:04:32.911Z,3.73
2023-03-30T14:07:10.271Z,3.13
2023-03-30T14:09:39.978Z,3.05
2023-03-30T14:12:09.365Z,4.72
2023-03-30T14:14:43.547Z,1.30
2023-03-30T14:17:18.239Z,3.37
2023-03-30T14:20:02.597Z,4.07
2023-03-30T14:22:32.427Z,2.40
2023-03-30T14:25:05.490Z,3.45
2023-03-30T14:27:38.505Z,6.32
2023-03-30T14:30:20.069Z,5.20
2023-03-30T14:32:48.561Z,4.10
2023-03-30T14:35:18.450Z,4.40
2023-03-30T14:37:52.221Z,3.37
2023-03-30T14:40:24.974Z,4.85
2023-03-30T14:42:53.604Z,3.63
2023-03-30T14:45:22.135Z,4.30
2023-03-30T14:47:51.531Z,3.17
2023-03-30T14:50:20.557Z,2.05
2023-03-30T14:52:49.717Z,2.95
2023-03-30T14:55:24.116Z,2.77
2023-03-30T14:57:53.624Z,4.25
2023-03-30T15:00:24.734Z,3.73
2023-03-30T15:02:56.878Z,4.07
2023-03-30T15:05:30.426Z,3.10
2023-03-30T15:07:58.880Z,4.43
2023-03-30T15:10:37.018Z,6.30
2023-03-30T15:13:07.993Z,2.78
2023-03-30T15:15:37.476Z,4.70
2023-03-30T15:18:06.553Z,4.38
2023-03-30T15:20:35.031Z,5.38
2023-03-30T15:23:03.460Z,4.88
2023-03-30T15:25:36.201Z,2.70
2023-03-30T15:28:08.604Z,2.17
2023-03-30T15:30:40.162Z,2.72
2023-03-30T15:33:20.990Z,4.47
2023-03-30T15:35:52.868Z,4.55
2023-03-30T15:38:31.375Z,2.23
2023-03-30T15:41:02.377Z,4.18
2023-03-30T15:43:33.674Z,3.83
2023-03-30T15:46:07.118Z,2.20
2023-03-30T15:48:43.070Z,3.50
2023-03-30T15:51:15.639Z,2.33
2023-03-30T15:53:51.729Z,3.58
2023-03-30T15:56:28.978Z,2.03
2023-03-30T15:58:59.748Z,3.03
2023-03-30T16:01:43.570Z,2.25
2023-03-30T16:04:16.971Z,1.50
2023-03-30T16:06:47.487Z,2.03
2023-03-30T16:09:16.543Z,1.73
2023-03-30T16:11:47.908Z,1.47
2023-03-30T16:14:21.106Z,1.88
2023-03-30T16:16:49.751Z,1.35
2023-03-30T16:19:21.053Z,2.22
2023-03-30T16:21:49.782Z,3.03
2023-03-30T16:24:18.228Z,2.40
2023-03-30T16:26:47.959Z,1.85
2023-03-30T16:29:21.532Z,2.15
2023-03-30T16:31:50.969Z,2.25
2023-03-30T16:34:23.129Z,2.95
2023-03-30T16:36:52.792Z,1.80
2023-03-30T16:39:23.787Z,3.17
2023-03-30T16:41:54.113Z,3.03
2023-03-30T16:44:25.061Z,5.72
2023-03-30T16:46:53.872Z,1.33
2023-03-30T16:49:24.449Z,3.22
2023-03-30T16:51:57.638Z,3.60
2023-03-30T16:54:32.693Z,2.80
2023-03-30T16:57:03.176Z,1.83
2023-03-30T16:59:33.470Z,3.33
2023-03-30T17:02:03.309Z,2.53
2023-03-30T17:04:31.810Z,2.50
2023-03-30T17:07:00.554Z,2.23
2023-03-30T17:09:29.959Z,4.10
2023-03-30T17:11:58.360Z,2.55
2023-03-30T17:14:28.314Z,3.97
2023-03-30T17:16:56.775Z,1.85
2023-03-30T17:19:28.024Z,2.07
2023-03-30T17:21:56.717Z,1.83
2023-03-30T17:24:25.174Z,1.90
2023-03-30T17:26:53.603Z,3.63
2023-03-30T17:29:22.094Z,3.83
2023-03-30T17:31:51.869Z,2.53
2023-03-30T17:34:20.413Z,2.63
2023-03-30T17:36:53.275Z,2.70
2023-03-30T17:39:21.953Z,2.90
2023-03-30T17:41:50.682Z,4.83
2023-03-30T17:44:19.063Z,2.63
2023-03-30T17:46:47.603Z,3.53
2023-03-30T17:49:18.778Z,2.20
2023-03-30T17:51:47.216Z,2.30
2023-03-30T17:54:15.688Z,4.70
2023-03-30T17:56:47.131Z,2.83
2023-03-30T17:59:15.730Z,1.87
2023-03-30T18:01:44.537Z,3.57
2023-03-30T18:04:13.102Z,3.80
2023-03-30T18:06:43.094Z,4.03
2023-03-30T18:09:17.141Z,3.23
2023-03-30T18:11:45.500Z,2.40
2023-03-30T18:14:14.056Z,4.27
2023-03-30T18:16:44.349Z,3.33
2023-03-30T18:19:13.555Z,3.40
2023-03-30T18:21:43.492Z,2.90
2023-03-30T18:24:11.928Z,2.60
2023-03-30T18:26:43.171Z,3.20
2023-03-30T18:29:20.331Z,3.33
2023-03-30T18:31:49.662Z,2.37
2023-03-30T18:34:19.605Z,1.77
2023-03-30T18:36:49.410Z,2.33
2023-03-30T18:39:20.155Z,3.30
2023-03-30T18:41:48.966Z,3.50
2023-03-30T18:44:17.681Z,3.50
2023-03-30T18:46:48.889Z,2.90
2023-03-30T18:49:21.235Z,2.40
2023-03-30T18:51:51.860Z,3.20
2023-03-30T18:54:20.912Z,2.70
2023-03-30T18:56:49.764Z,3.17
2023-03-30T18:59:22.538Z,3.43
2023-03-30T19:01:51.122Z,3.50
2023-03-30T19:04:21.921Z,3.53
2023-03-30T19:06:53.158Z,3.20
2023-03-30T19:09:29.788Z,4.27
2023-03-30T19:12:05.556Z,2.37
2023-03-30T19:14:33.887Z,2.20
2023-03-30T19:17:02.670Z,4.80
2023-03-30T19:19:31.098Z,3.27
2023-03-30T19:22:03.226Z,2.20
2023-03-30T19:24:31.579Z,2.47
2023-03-30T19:27:00.542Z,2.33
2023-03-30T19:29:29.048Z,4.43
2023-03-30T19:31:58.769Z,3.50
2023-03-30T19:34:27.226Z,1.50
2023-03-30T19:36:55.723Z,2.53
2023-03-30T19:39:25.547Z,2.37
2023-03-30T19:41:53.955Z,1.87
2023-03-30T19:44:22.432Z,2.30
2023-03-30T19:46:50.806Z,2.00
2023-03-30T19:49:19.206Z,2.07
2023-03-30T19:51:48.018Z,1.50
2023-03-30T19:54:16.419Z,3.33
2023-03-30T19:56:46.243Z,2.47
2023-03-30T19:59:14.681Z,1.30
2023-03-30T20:01:43.102Z,2.53
2023-03-30T20:04:11.504Z,0.50
2023-03-30T20:06:39.870Z,1.90
2023-03-30T20:09:08.289Z,1.53
2023-03-30T20:11:36.747Z,1.33
2023-03-30T20:14:07.449Z,1.93
2023-03-30T20:16:36.076Z,1.67
2023-03-30T20:19:15.802Z,2.03
2023-03-30T20:21:51.986Z,1.13
2023-03-30T20:24:20.432Z,1.50
2023-03-30T20:26:48.821Z,1.47
2023-03-30T20:29:18.874Z,2.70
2023-03-30T20:31:47.352Z,3.70
2023-03-30T20:34:16.527Z,2.17
2023-03-30T20:36:47.314Z,2.07
2023-03-30T20:39:15.714Z,1.47
2023-03-30T20:41:44.091Z,4.50
2023-03-30T20:44:12.767Z,2.47
2023-03-30T20:46:43.477Z,3.70
2023-03-30T20:49:13.058Z,2.93
2023-03-30T20:51:43.275Z,2.53
2023-03-30T20:54:11.631Z,3.30
2023-03-30T20:56:39.974Z,3.70
2023-03-30T20:59:08.616Z,1.87
2023-03-30T21:01:39.623Z,3.17
2023-03-30T21:04:09.854Z,3.57
2023-03-30T21:06:38.441Z,5.53
2023-03-30T21:09:08.816Z,3.40
2023-03-30T21:11:39.882Z,5.13
2023-03-30T21:14:11.846Z,6.00
2023-03-30T21:16:42.056Z,7.17
2023-03-30T21:19:13.295Z,5.07
2023-03-30T21:21:41.650Z,5.73
2023-03-30T21:24:12.753Z,3.60
2023-03-30T21:26:41.317Z,3.00
2023-03-30T21:29:09.731Z,3.30
2023-03-30T21:31:38.160Z,3.17
2023-03-30T21:34:07.524Z,2.47
2023-03-30T21:36:37.566Z,2.87
2023-03-30T21:39:06.027Z,3.80
2023-03-30T21:41:34.552Z,2.47
2023-03-30T21:44:03.309Z,5.00
2023-03-30T21:46:31.861Z,4.27
2023-03-30T21:49:00.349Z,3.63
2023-03-30T21:51:31.451Z,7.23
2023-03-30T21:54:01.379Z,3.33
2023-03-30T21:56:31.423Z,2.53
2023-03-30T21:59:00.318Z,3.07
2023-03-30T22:01:28.751Z,3.03
2023-03-30T22:03:58.637Z,2.67
2023-03-30T22:06:27.029Z,3.77
2023-03-30T22:08:55.512Z,1.83
2023-03-30T22:11:27.397Z,3.83
2023-03-30T22:13:56.171Z,4.03
2023-03-30T22:16:28.379Z,2.80
2023-03-30T22:18:57.153Z,1.87
2023-03-30T22:21:29.204Z,5.13
2023-03-30T22:23:57.664Z,2.53
2023-03-30T22:26:28.168Z,2.57
2023-03-30T22:28:57.501Z,5.23
2023-03-30T22:31:26.665Z,3.30
2023-03-30T22:33:56.305Z,0.90
2023-03-30T22:36:29.913Z,2.50
2023-03-30T22:39:00.361Z,2.83
2023-03-30T22:41:31.411Z,4.53
2023-03-30T22:44:00.499Z,2.53
2023-03-30T22:46:29.159Z,5.47
2023-03-30T22:48:57.667Z,1.93
2023-03-30T22:51:27.164Z,4.93
2023-03-30T22:53:57.976Z,4.10
2023-03-30T22:56:27.353Z,3.63
2023-03-30T22:58:58.126Z,3.57
2023-03-30T23:01:29.191Z,4.97
2023-03-30T23:03:59.659Z,1.90
2023-03-30T23:06:28.224Z,3.30
2023-03-30T23:08:56.587Z,5.63
2023-03-30T23:11:26.458Z,3.43
2023-03-30T23:13:56.549Z,4.90
2023-03-30T23:16:27.489Z,6.17
2023-03-30T23:18:55.888Z,2.60
2023-03-30T23:21:24.242Z,6.63
2023-03-30T23:23:52.621Z,3.73
2023-03-30T23:26:21.489Z,5.17
2023-03-30T23:28:49.858Z,2.20
2023-03-30T23:31:19.802Z,4.03
2023-03-30T23:33:48.292Z,2.80
2023-03-30T23:36:19.187Z,2.73
2023-03-30T23:38:48.265Z,4.00
2023-03-30T23:41:19.491Z,2.93
2023-03-30T23:43:48.451Z,3.67
2023-03-30T23:46:17.257Z,2.77
2023-03-30T23:48:47.018Z,2.83
2023-03-30T23:51:15.525Z,4.53
2023-03-30T23:53:43.928Z,5.57
2023-03-30T23:56:13.882Z,4.33
2023-03-30T23:58:42.624Z,4.37
